Time;durP1;ratioP1;P1;durP2;ratioP2;P2;SDS_P1;SDS_P2;PMS_P1;PMS_P2;Temp;Humidity;BMP_temperature;BMP_pressure;BME280_temperature;BME280_humidity;BME280_pressure;Samples;Min_cycle;Max_cycle;Signal;HPM_P1;HPM_P2
2022/11/03 00:01:56;;;;;;;;;;;20.00;69.30;;;;;;5073729;28;19924;-63
2022/11/03 00:04:22;;;;;;;;;;;20.00;69.40;;;;;;5093050;28;20378;-64
2022/11/03 00:06:48;;;;;;;;;;;20.00;69.30;;;;;;5093121;28;19924;-63
2022/11/03 00:09:14;;;;;;;;;;;20.00;69.30;;;;;;5074600;28;19924;-64
2022/11/03 00:11:40;;;;;;;;;;;20.00;69.30;;;;;;5093041;28;19947;-64
2022/11/03 00:14:06;;;;;;;;;;;20.00;69.30;;;;;;5092833;28;19924;-64
2022/11/03 00:16:31;;;;;;;;;;;20.00;69.30;;;;;;5074637;28;19977;-64
2022/11/03 00:18:57;;;;;;;;;;;20.00;69.30;;;;;;5092622;28;19924;-64
2022/11/03 00:21:22;;;;;;;;;;;20.00;69.20;;;;;;5104801;28;19924;-64
2022/11/03 00:23:48;;;;;;;;;;;20.00;69.20;;;;;;5094168;28;19924;-64
2022/11/03 00:26:14;;;;;;;;;;;20.00;69.20;;;;;;5094819;28;19976;-64
2022/11/03 00:28:40;;;;;;;;;;;19.90;69.20;;;;;;5095062;28;20381;-63
2022/11/03 00:31:09;;;;;;;;;;;19.90;69.20;;;;;;5112759;28;20412;-63
2022/11/03 00:33:35;;;;;;;;;;;19.90;69.20;;;;;;5129139;27;19923;-63
2022/11/03 00:36:01;;;;;;;;;;;19.90;69.20;;;;;;5113033;28;20030;-63
2022/11/03 00:38:27;;;;;;;;;;;20.00;69.20;;;;;;5112889;28;20341;-64
2022/11/03 00:40:56;;;;;;;;;;;19.90;69.10;;;;;;5112959;28;19928;-64
2022/11/03 00:43:22;;;;;;;;;;;19.90;69.10;;;;;;5112667;28;19928;-64
2022/11/03 00:45:47;;;;;;;;;;;19.90;69.10;;;;;;5112324;28;19924;-64
2022/11/03 00:48:28;;;;;;;;;;;19.90;69.10;;;;;;5094643;28;19924;-64
2022/11/03 00:51:03;;;;;;;;;;;19.90;69.10;;;;;;5093829;28;19931;-63
2022/11/03 00:53:29;;;;;;;;;;;19.90;69.10;;;;;;5128934;28;19923;-64
2022/11/03 00:55:55;;;;;;;;;;;19.90;69.10;;;;;;5112638;28;19950;-64
2022/11/03 00:58:20;;;;;;;;;;;19.90;69.00;;;;;;5093988;28;19928;-64
2022/11/03 01:00:46;;;;;;;;;;;19.90;68.90;;;;;;5094673;28;19923;-64
2022/11/03 01:03:11;;;;;;;;;;;19.90;69.00;;;;;;5094475;28;19923;-64
2022/11/03 01:08:24;;;;;;;;;;;19.80;68.90;;;;;;5117294;28;19924;-64
2022/11/03 01:13:34;;;;;;;;;;;19.80;68.90;;;;;;5116650;28;19924;-64
2022/11/03 01:15:59;;;;;;;;;;;19.80;68.90;;;;;;5116607;28;19923;-64
2022/11/03 01:18:25;;;;;;;;;;;19.80;68.90;;;;;;5098555;28;19950;-64
2022/11/03 01:20:56;;;;;;;;;;;19.80;68.90;;;;;;5116122;28;19973;-64
2022/11/03 01:23:22;;;;;;;;;;;19.80;68.90;;;;;;5098195;28;19934;-64
2022/11/03 01:25:48;;;;;;;;;;;19.80;68.90;;;;;;5115993;28;19927;-64
2022/11/03 01:28:13;;;;;;;;;;;19.80;68.90;;;;;;5116312;28;19919;-64
2022/11/03 01:30:39;;;;;;;;;;;19.80;68.90;;;;;;5116638;28;20014;-64
2022/11/03 01:33:07;;;;;;;;;;;19.80;68.90;;;;;;5097284;28;19973;-64
2022/11/03 01:35:32;;;;;;;;;;;19.80;68.90;;;;;;5098096;28;19924;-64
2022/11/03 01:37:58;;;;;;;;;;;19.80;68.80;;;;;;5116041;28;19930;-64
2022/11/03 01:40:23;;;;;;;;;;;19.80;68.90;;;;;;5097587;28;19919;-64
2022/11/03 01:42:49;;;;;;;;;;;19.80;68.90;;;;;;5097473;28;19963;-65
2022/11/03 01:45:14;;;;;;;;;;;19.80;68.80;;;;;;5097873;28;19923;-64
2022/11/03 01:47:40;;;;;;;;;;;19.80;68.70;;;;;;5097494;28;20030;-64
2022/11/03 01:50:07;;;;;;;;;;;19.70;68.70;;;;;;5116166;28;19931;-65
2022/11/03 01:52:35;;;;;;;;;;;19.70;68.70;;;;;;5132096;27;19924;-64
2022/11/03 01:55:11;;;;;;;;;;;19.70;68.70;;;;;;5080847;28;20079;-64
2022/11/03 01:57:38;;;;;;;;;;;19.70;68.60;;;;;;5116149;28;19949;-64
2022/11/03 02:00:04;;;;;;;;;;;19.70;69.20;;;;;;5115679;28;19919;-65
2022/11/03 02:02:30;;;;;;;;;;;19.70;68.70;;;;;;5096990;28;19931;-65
2022/11/03 02:04:55;;;;;;;;;;;19.70;68.70;;;;;;5115628;28;19923;-65
2022/11/03 02:07:29;;;;;;;;;;;19.70;68.60;;;;;;5097631;28;19928;-65
2022/11/03 02:09:58;;;;;;;;;;;19.70;68.70;;;;;;5096955;28;19923;-64
2022/11/03 02:12:24;;;;;;;;;;;19.70;68.70;;;;;;5115780;28;19949;-65
2022/11/03 02:14:59;;;;;;;;;;;19.70;68.50;;;;;;5115266;28;19923;-64
2022/11/03 02:17:26;;;;;;;;;;;19.70;68.60;;;;;;5080430;28;19996;-64
2022/11/03 02:19:58;;;;;;;;;;;19.70;68.60;;;;;;5115274;28;19923;-64
2022/11/03 02:22:27;;;;;;;;;;;19.70;68.60;;;;;;5114708;28;19924;-64
2022/11/03 02:25:11;;;;;;;;;;;19.70;68.60;;;;;;5080165;28;19924;-64
2022/11/03 02:27:37;;;;;;;;;;;19.70;68.60;;;;;;5115243;28;19923;-64
2022/11/03 02:30:02;;;;;;;;;;;19.70;68.60;;;;;;5096650;28;19928;-64
2022/11/03 02:32:28;;;;;;;;;;;19.60;68.60;;;;;;5096746;28;19928;-64
2022/11/03 02:34:56;;;;;;;;;;;19.70;68.50;;;;;;5097041;28;19984;-64
2022/11/03 02:37:22;;;;;;;;;;;19.60;68.50;;;;;;5096652;28;19950;-64
2022/11/03 02:39:53;;;;;;;;;;;19.60;68.50;;;;;;5097039;28;19924;-64
2022/11/03 02:42:18;;;;;;;;;;;19.60;68.50;;;;;;5096341;28;20283;-63
2022/11/03 02:44:44;;;;;;;;;;;19.60;68.40;;;;;;5114182;28;20033;-64
2022/11/03 02:47:10;;;;;;;;;;;19.60;68.40;;;;;;5096905;28;19932;-64
2022/11/03 02:49:45;;;;;;;;;;;19.60;68.40;;;;;;5096890;28;19973;-64
2022/11/03 02:52:29;;;;;;;;;;;19.60;68.40;;;;;;5114606;28;19969;-63
2022/11/03 02:54:55;;;;;;;;;;;19.60;68.40;;;;;;5115009;28;19934;-64
2022/11/03 02:57:24;;;;;;;;;;;19.60;69.00;;;;;;5096201;28;20018;-64
2022/11/03 02:59:52;;;;;;;;;;;19.60;68.30;;;;;;5113394;27;19923;-64
2022/11/03 03:02:18;;;;;;;;;;;19.60;68.30;;;;;;5095830;28;19977;-64
2022/11/03 03:04:45;;;;;;;;;;;19.60;68.30;;;;;;5094945;28;20047;-65
2022/11/03 03:07:15;;;;;;;;;;;19.60;68.30;;;;;;5079354;28;19924;-63
2022/11/03 03:09:45;;;;;;;;;;;19.60;68.30;;;;;;5114362;28;19924;-64
2022/11/03 03:12:11;;;;;;;;;;;19.60;68.30;;;;;;5113891;28;19924;-64
2022/11/03 03:14:37;;;;;;;;;;;19.60;68.30;;;;;;5096653;28;19973;-64
2022/11/03 03:17:11;;;;;;;;;;;19.60;68.30;;;;;;5129827;27;19927;-64
2022/11/03 03:19:37;;;;;;;;;;;19.60;68.30;;;;;;5114298;28;19975;-63
2022/11/03 03:22:02;;;;;;;;;;;19.60;68.30;;;;;;5096171;28;19970;-64
2022/11/03 03:24:39;;;;;;;;;;;19.50;68.20;;;;;;5095505;28;19978;-63
2022/11/03 03:27:05;;;;;;;;;;;19.50;68.20;;;;;;5094643;28;19924;-63
2022/11/03 03:29:36;;;;;;;;;;;19.50;68.20;;;;;;5095995;28;19920;-63
2022/11/03 03:32:02;;;;;;;;;;;19.50;68.10;;;;;;5095548;28;19928;-63
2022/11/03 03:34:28;;;;;;;;;;;19.50;68.10;;;;;;5095247;28;20378;-63
2022/11/03 03:36:54;;;;;;;;;;;19.60;68.20;;;;;;5078453;28;19924;-64
2022/11/03 03:39:19;;;;;;;;;;;19.50;68.10;;;;;;5095274;28;19930;-64
2022/11/03 03:41:45;;;;;;;;;;;19.50;68.10;;;;;;5095175;28;20010;-64
2022/11/03 03:44:11;;;;;;;;;;;19.50;68.10;;;;;;5113696;28;19976;-64
2022/11/03 03:46:37;;;;;;;;;;;19.50;68.00;;;;;;5078461;28;20016;-64
2022/11/03 03:49:03;;;;;;;;;;;19.50;68.00;;;;;;5129419;27;19934;-64
2022/11/03 03:51:28;;;;;;;;;;;19.50;68.00;;;;;;5113993;28;19924;-64
2022/11/03 03:53:54;;;;;;;;;;;19.50;68.00;;;;;;5112366;28;19924;-65
2022/11/03 03:56:20;;;;;;;;;;;19.50;68.10;;;;;;5095840;28;19947;-65
2022/11/03 03:58:45;;;;;;;;;;;19.50;68.10;;;;;;5078497;28;19924;-65
2022/11/03 04:01:14;;;;;;;;;;;19.50;68.20;;;;;;5113828;28;19993;-64
2022/11/03 04:03:39;;;;;;;;;;;19.50;68.30;;;;;;5114232;28;19923;-64
2022/11/03 04:06:05;;;;;;;;;;;19.50;68.20;;;;;;5113346;28;19930;-64
2022/11/03 04:08:30;;;;;;;;;;;19.50;68.20;;;;;;5113675;28;19946;-65
2022/11/03 04:22:15;;;;;;;;;;;19.60;68.20;;;;;;5097579;28;19924;-64
2022/11/03 04:24:41;;;;;;;;;;;19.50;68.20;;;;;;5113852;28;19923;-64
2022/11/03 04:27:12;;;;;;;;;;;19.50;68.10;;;;;;5113235;28;20030;-64
2022/11/03 04:29:38;;;;;;;;;;;19.50;68.10;;;;;;5113347;28;19923;-64
2022/11/03 04:32:09;;;;;;;;;;;19.50;68.10;;;;;;5113491;28;19930;-64
2022/11/03 04:34:35;;;;;;;;;;;19.60;68.10;;;;;;5112378;28;19924;-64
2022/11/03 04:37:00;;;;;;;;;;;19.60;68.10;;;;;;5112781;28;19977;-64
2022/11/03 04:39:26;;;;;;;;;;;19.60;68.00;;;;;;5094996;28;19930;-64
2022/11/03 04:41:52;;;;;;;;;;;19.60;68.00;;;;;;5094891;28;19951;-64
2022/11/03 04:44:17;;;;;;;;;;;19.60;68.00;;;;;;5112662;28;19928;-65
2022/11/03 04:46:43;;;;;;;;;;;19.60;67.90;;;;;;5094950;28;19975;-64
2022/11/03 04:49:10;;;;;;;;;;;19.60;67.90;;;;;;5113386;28;19927;-64
2022/11/03 04:51:35;;;;;;;;;;;19.60;67.90;;;;;;5111640;28;20324;-64
2022/11/03 04:54:02;;;;;;;;;;;19.60;67.80;;;;;;5094670;28;20022;-64
2022/11/03 04:56:27;;;;;;;;;;;19.70;68.40;;;;;;5095120;28;20374;-64
2022/11/03 04:58:53;;;;;;;;;;;19.70;67.90;;;;;;5094472;28;19931;-65
2022/11/03 05:01:21;;;;;;;;;;;19.70;67.80;;;;;;5112311;28;20019;-64
2022/11/03 05:03:51;;;;;;;;;;;19.70;67.80;;;;;;5092330;28;19924;-64
2022/11/03 05:06:17;;;;;;;;;;;19.70;67.70;;;;;;5091249;28;19930;-64
2022/11/03 05:08:43;;;;;;;;;;;19.70;67.70;;;;;;5057659;28;19928;-65
2022/11/03 05:11:35;;;;;;;;;;;19.70;67.70;;;;;;5074168;28;19977;-64
2022/11/03 05:14:01;;;;;;;;;;;19.70;67.70;;;;;;5090199;28;19924;-65
2022/11/03 05:16:27;;;;;;;;;;;19.70;67.70;;;;;;5092941;28;19932;-64
2022/11/03 05:18:55;;;;;;;;;;;19.70;67.70;;;;;;5092211;28;19924;-64
2022/11/03 05:21:21;;;;;;;;;;;19.80;67.70;;;;;;5092992;28;20279;-64
2022/11/03 05:23:51;;;;;;;;;;;19.80;67.70;;;;;;5074258;28;20010;-65
2022/11/03 05:26:17;;;;;;;;;;;19.80;67.70;;;;;;5074145;28;19938;-64
2022/11/03 05:28:44;;;;;;;;;;;19.80;67.70;;;;;;5074345;28;19964;-64
2022/11/03 05:31:19;;;;;;;;;;;19.80;67.60;;;;;;5074321;28;19931;-63
2022/11/03 05:33:46;;;;;;;;;;;19.80;67.70;;;;;;5073597;28;19928;-64
2022/11/03 05:36:12;;;;;;;;;;;19.80;67.60;;;;;;5092781;28;19931;-65
2022/11/03 05:38:38;;;;;;;;;;;19.80;67.60;;;;;;5074363;28;20355;-64
2022/11/03 05:41:04;;;;;;;;;;;19.80;67.60;;;;;;5073880;28;20027;-64
2022/11/03 05:43:29;;;;;;;;;;;19.80;67.60;;;;;;5074310;28;19924;-64
2022/11/03 05:45:56;;;;;;;;;;;19.90;67.60;;;;;;5074188;28;19977;-65
2022/11/03 05:48:25;;;;;;;;;;;19.80;67.60;;;;;;5057165;28;20412;-65
2022/11/03 05:50:50;;;;;;;;;;;19.90;67.60;;;;;;5093378;28;19975;-65
2022/11/03 05:53:34;;;;;;;;;;;19.90;67.60;;;;;;5095764;28;19959;-65
2022/11/03 05:56:00;;;;;;;;;;;19.90;67.60;;;;;;5077725;28;19931;-64
2022/11/03 05:58:29;;;;;;;;;;;19.90;67.60;;;;;;5095958;28;19924;-63
2022/11/03 06:00:56;;;;;;;;;;;19.90;67.60;;;;;;5095268;28;19930;-64
2022/11/03 06:03:26;;;;;;;;;;;19.90;67.60;;;;;;5095926;28;19931;-64
2022/11/03 06:05:51;;;;;;;;;;;19.90;67.60;;;;;;5095276;28;19970;-64
2022/11/03 06:08:21;;;;;;;;;;;19.90;67.50;;;;;;5077427;28;19920;-64
2022/11/03 06:10:48;;;;;;;;;;;19.90;67.50;;;;;;5095662;28;20401;-64
2022/11/03 06:13:14;;;;;;;;;;;19.90;67.40;;;;;;5095296;28;19938;-64
2022/11/03 06:15:40;;;;;;;;;;;19.90;67.40;;;;;;5077506;28;19920;-64
2022/11/03 06:18:20;;;;;;;;;;;19.90;67.40;;;;;;5095532;28;20059;-64
2022/11/03 06:20:50;;;;;;;;;;;19.90;67.40;;;;;;5095405;28;20065;-63
2022/11/03 06:23:16;;;;;;;;;;;19.90;67.40;;;;;;5094891;28;20735;-65
2022/11/03 06:25:42;;;;;;;;;;;19.90;67.40;;;;;;5077376;28;19928;-64
2022/11/03 06:28:10;;;;;;;;;;;19.90;67.30;;;;;;5095172;28;19920;-64
2022/11/03 06:30:41;;;;;;;;;;;19.90;67.30;;;;;;5077070;28;19997;-64
2022/11/03 06:33:12;;;;;;;;;;;19.90;67.40;;;;;;5095138;28;19923;-64
2022/11/03 06:35:37;;;;;;;;;;;19.90;67.30;;;;;;5094770;28;19931;-64
2022/11/03 06:38:04;;;;;;;;;;;19.90;67.30;;;;;;5095272;28;19928;-65
2022/11/03 06:40:33;;;;;;;;;;;19.90;67.30;;;;;;5060239;28;19926;-65
2022/11/03 06:42:59;;;;;;;;;;;19.90;67.30;;;;;;5075899;28;20283;-65
2022/11/03 06:45:25;;;;;;;;;;;19.90;67.30;;;;;;5076401;28;19950;-65
2022/11/03 06:47:51;;;;;;;;;;;19.90;67.30;;;;;;5094549;28;20305;-65
2022/11/03 06:50:20;;;;;;;;;;;19.90;67.30;;;;;;5094485;28;19924;-63
2022/11/03 06:52:46;;;;;;;;;;;19.90;67.30;;;;;;5059758;28;20058;-62
2022/11/03 06:55:12;;;;;;;;;;;19.90;67.30;;;;;;5094596;28;20404;-64
2022/11/03 06:57:41;;;;;;;;;;;19.90;67.30;;;;;;5094375;28;19930;-63
2022/11/03 07:00:16;;;;;;;;;;;19.90;67.30;;;;;;5094864;28;19963;-64
2022/11/03 07:03:00;;;;;;;;;;;19.90;67.30;;;;;;5094738;28;19924;-64
2022/11/03 07:05:27;;;;;;;;;;;19.90;67.20;;;;;;5094368;28;19978;-63
2022/11/03 07:07:57;;;;;;;;;;;19.90;67.30;;;;;;5094580;28;19928;-64
2022/11/03 07:10:30;;;;;;;;;;;19.90;67.20;;;;;;5076799;28;19928;-64
2022/11/03 07:12:55;;;;;;;;;;;19.90;67.30;;;;;;5093911;28;19924;-64
2022/11/03 07:15:24;;;;;;;;;;;19.90;67.30;;;;;;5094247;28;20011;-62
2022/11/03 07:17:49;;;;;;;;;;;19.90;67.20;;;;;;5093815;28;19985;-64
2022/11/03 07:20:15;;;;;;;;;;;19.90;67.00;;;;;;5076521;28;20375;-65
2022/11/03 07:22:41;;;;;;;;;;;19.90;67.00;;;;;;5094330;28;20321;-65
2022/11/03 07:25:08;;;;;;;;;;;19.90;67.10;;;;;;5093485;28;19979;-64
2022/11/03 07:27:37;;;;;;;;;;;19.90;67.10;;;;;;5076076;28;19931;-64
2022/11/03 07:30:15;;;;;;;;;;;19.90;67.20;;;;;;5076147;28;19990;-66
2022/11/03 07:32:40;;;;;;;;;;;19.90;67.30;;;;;;5093903;28;19923;-65
2022/11/03 07:35:15;;;;;;;;;;;19.90;67.20;;;;;;5093997;28;20442;-65
2022/11/03 07:37:40;;;;;;;;;;;19.90;67.30;;;;;;5093819;28;20351;-65
2022/11/03 07:40:16;;;;;;;;;;;19.90;67.20;;;;;;5093192;28;19978;-64
2022/11/03 07:42:42;;;;;;;;;;;19.90;67.30;;;;;;5103393;28;20387;-65
2022/11/03 07:45:26;;;;;;;;;;;19.90;67.40;;;;;;5114388;28;19924;-64
2022/11/03 07:47:52;;;;;;;;;;;19.90;67.50;;;;;;5113463;28;19924;-65
2022/11/03 07:50:17;;;;;;;;;;;20.00;67.60;;;;;;5114093;28;19924;-65
2022/11/03 07:52:43;;;;;;;;;;;20.00;67.70;;;;;;5078834;28;19955;-65
2022/11/03 07:55:08;;;;;;;;;;;20.00;67.70;;;;;;5095620;28;19923;-66
2022/11/03 07:57:34;;;;;;;;;;;20.00;67.70;;;;;;5095672;28;20022;-65
2022/11/03 08:00:04;;;;;;;;;;;20.00;67.70;;;;;;5095341;28;19984;-66
2022/11/03 08:02:30;;;;;;;;;;;20.00;67.70;;;;;;5096248;28;19928;-66
2022/11/03 08:04:56;;;;;;;;;;;20.00;67.90;;;;;;5129429;27;19938;-66
2022/11/03 08:07:21;;;;;;;;;;;20.00;67.90;;;;;;5113469;28;19924;-66
2022/11/03 08:09:46;;;;;;;;;;;20.00;67.90;;;;;;5095794;28;19923;-65
2022/11/03 08:12:12;;;;;;;;;;;20.10;68.00;;;;;;5095641;28;19932;-64
2022/11/03 08:14:37;;;;;;;;;;;20.10;68.00;;;;;;5112990;28;20022;-66
2022/11/03 08:17:06;;;;;;;;;;;20.10;68.00;;;;;;5113613;28;19930;-65
2022/11/03 08:19:32;;;;;;;;;;;20.10;68.10;;;;;;5112860;28;19930;-65
2022/11/03 08:21:57;;;;;;;;;;;20.10;68.10;;;;;;5098769;28;19924;-64
2022/11/03 08:24:23;;;;;;;;;;;20.10;68.10;;;;;;5094901;28;20061;-65
2022/11/03 08:26:48;;;;;;;;;;;20.10;68.10;;;;;;5106281;28;19931;-63
2022/11/03 08:29:16;;;;;;;;;;;20.20;68.20;;;;;;5092299;28;20278;-63
2022/11/03 08:31:42;;;;;;;;;;;20.20;68.20;;;;;;5092471;28;19930;-66
2022/11/03 08:34:07;;;;;;;;;;;20.20;68.20;;;;;;5092055;28;19924;-63
2022/11/03 08:36:33;;;;;;;;;;;20.20;68.10;;;;;;5091968;28;19924;-64
2022/11/03 08:38:58;;;;;;;;;;;20.20;68.10;;;;;;5092343;28;19935;-65
2022/11/03 08:41:24;;;;;;;;;;;20.20;68.00;;;;;;5092453;28;19924;-63
2022/11/03 08:43:49;;;;;;;;;;;20.20;68.10;;;;;;5091656;28;20331;-64
2022/11/03 08:46:15;;;;;;;;;;;20.30;68.10;;;;;;5092509;28;19924;-63
2022/11/03 08:48:40;;;;;;;;;;;20.30;68.20;;;;;;5092692;28;20255;-64
2022/11/03 08:51:09;;;;;;;;;;;20.30;68.30;;;;;;5091935;28;19924;-65
2022/11/03 08:53:34;;;;;;;;;;;20.30;68.30;;;;;;5074360;28;19954;-64
2022/11/03 08:56:00;;;;;;;;;;;20.30;68.30;;;;;;5092422;28;19924;-65
2022/11/03 08:58:28;;;;;;;;;;;20.30;68.30;;;;;;5073698;28;20367;-63
2022/11/03 09:00:53;;;;;;;;;;;20.30;68.30;;;;;;5110344;28;19923;-66
2022/11/03 09:03:19;;;;;;;;;;;20.30;68.30;;;;;;5112138;28;19935;-65
2022/11/03 09:05:44;;;;;;;;;;;20.30;68.30;;;;;;5112525;28;20287;-64
2022/11/03 09:08:10;;;;;;;;;;;20.30;68.30;;;;;;5094593;28;19930;-65
2022/11/03 09:10:35;;;;;;;;;;;20.30;68.30;;;;;;5112549;28;20027;-65
2022/11/03 09:13:01;;;;;;;;;;;20.30;68.30;;;;;;5093390;28;19997;-65
2022/11/03 09:15:26;;;;;;;;;;;20.30;68.30;;;;;;5094222;28;20390;-65
2022/11/03 09:17:52;;;;;;;;;;;20.30;68.20;;;;;;5093811;28;19928;-65
2022/11/03 09:20:17;;;;;;;;;;;20.30;68.30;;;;;;5112958;28;19923;-64
2022/11/03 09:22:43;;;;;;;;;;;20.30;68.30;;;;;;5093976;28;19935;-64
2022/11/03 09:25:08;;;;;;;;;;;20.30;68.30;;;;;;5111350;28;20370;-64
2022/11/03 09:27:34;;;;;;;;;;;20.30;68.30;;;;;;5077513;28;19930;-64
2022/11/03 09:29:59;;;;;;;;;;;20.30;68.50;;;;;;5076768;28;20283;-64
2022/11/03 09:32:25;;;;;;;;;;;20.30;68.30;;;;;;5094738;28;19931;-63
2022/11/03 09:34:50;;;;;;;;;;;20.30;68.30;;;;;;5076688;28;19936;-65
2022/11/03 09:37:16;;;;;;;;;;;20.30;68.30;;;;;;5098346;28;19932;-65
2022/11/03 09:39:41;;;;;;;;;;;20.30;68.30;;;;;;5094896;28;20018;-64
2022/11/03 09:42:07;;;;;;;;;;;20.30;68.30;;;;;;5076926;28;19970;-64
2022/11/03 09:44:33;;;;;;;;;;;20.30;68.40;;;;;;5098622;28;20030;-64
2022/11/03 09:46:59;;;;;;;;;;;20.30;68.30;;;;;;5109986;28;19981;-64
2022/11/03 09:49:25;;;;;;;;;;;20.30;68.30;;;;;;5095374;28;19920;-64
2022/11/03 09:51:50;;;;;;;;;;;20.30;68.30;;;;;;5095314;28;20019;-65
2022/11/03 09:54:19;;;;;;;;;;;20.30;68.30;;;;;;5077219;28;19931;-65
2022/11/03 09:56:47;;;;;;;;;;;20.30;68.10;;;;;;5112231;28;20032;-65
2022/11/03 09:59:17;;;;;;;;;;;20.30;68.30;;;;;;5114176;28;19924;-65
2022/11/03 10:01:44;;;;;;;;;;;20.40;68.20;;;;;;5112028;28;19924;-65
2022/11/03 10:04:10;;;;;;;;;;;20.30;68.20;;;;;;5096185;28;19924;-65
2022/11/03 10:06:36;;;;;;;;;;;20.40;68.30;;;;;;5114649;28;19932;-65
2022/11/03 10:09:01;;;;;;;;;;;20.30;68.30;;;;;;5096530;28;19923;-65
2022/11/03 10:11:27;;;;;;;;;;;20.40;68.20;;;;;;5115227;28;20361;-65
2022/11/03 10:13:53;;;;;;;;;;;20.40;68.30;;;;;;5096582;28;20357;-66
2022/11/03 10:16:20;;;;;;;;;;;20.40;68.30;;;;;;5097705;28;19975;-65
2022/11/03 10:18:45;;;;;;;;;;;20.40;68.30;;;;;;5079540;28;20294;-65
2022/11/03 10:21:29;;;;;;;;;;;20.40;68.30;;;;;;5096827;28;19934;-67
2022/11/03 10:23:55;;;;;;;;;;;20.40;68.20;;;;;;5097365;28;20034;-67
2022/11/03 10:26:21;;;;;;;;;;;20.40;68.30;;;;;;5115150;28;20014;-68
2022/11/03 10:28:58;;;;;;;;;;;20.40;68.20;;;;;;5114627;28;19967;-68
2022/11/03 10:31:30;;;;;;;;;;;20.40;68.30;;;;;;5115651;28;19931;-67
2022/11/03 10:33:59;;;;;;;;;;;20.40;68.40;;;;;;5115364;28;19920;-67
2022/11/03 10:36:25;;;;;;;;;;;20.30;68.30;;;;;;5096521;28;20290;-66
2022/11/03 10:38:51;;;;;;;;;;;20.40;68.40;;;;;;5114940;28;20052;-66
2022/11/03 10:41:17;;;;;;;;;;;20.40;68.40;;;;;;5097172;28;19984;-68
2022/11/03 10:43:43;;;;;;;;;;;20.40;68.50;;;;;;5095766;28;19938;-66
2022/11/03 10:46:10;;;;;;;;;;;20.30;68.40;;;;;;5130717;27;20294;-66
2022/11/03 10:48:36;;;;;;;;;;;20.30;68.40;;;;;;5115222;28;19949;-66
2022/11/03 10:51:02;;;;;;;;;;;20.30;68.40;;;;;;5114786;28;19924;-66
2022/11/03 10:53:27;;;;;;;;;;;20.40;68.50;;;;;;5114795;28;19924;-66
2022/11/03 10:55:54;;;;;;;;;;;20.40;68.50;;;;;;5114270;28;19935;-67
2022/11/03 10:58:20;;;;;;;;;;;20.30;68.40;;;;;;5097125;28;19923;-66
2022/11/03 11:00:46;;;;;;;;;;;20.30;68.40;;;;;;5109598;28;19977;-63
2022/11/03 11:03:11;;;;;;;;;;;20.30;68.40;;;;;;5095614;28;19924;-66
2022/11/03 11:05:43;;;;;;;;;;;20.30;68.30;;;;;;5096849;28;19924;-66
2022/11/03 11:08:09;;;;;;;;;;;20.30;68.30;;;;;;5114975;28;20254;-66
2022/11/03 11:10:34;;;;;;;;;;;20.30;68.30;;;;;;5079073;28;20382;-66
2022/11/03 11:13:03;;;;;;;;;;;20.30;68.30;;;;;;5114314;28;19923;-66
2022/11/03 11:15:35;;;;;;;;;;;20.30;68.30;;;;;;5114757;28;19926;-65
2022/11/03 11:18:00;;;;;;;;;;;20.30;68.40;;;;;;5113825;28;20409;-65
2022/11/03 11:20:30;;;;;;;;;;;20.30;68.30;;;;;;5114512;28;19962;-65
2022/11/03 11:22:55;;;;;;;;;;;20.30;68.30;;;;;;5114202;28;19933;-65
2022/11/03 11:25:21;;;;;;;;;;;20.30;68.30;;;;;;5095799;28;20032;-65
2022/11/03 11:27:56;;;;;;;;;;;20.30;69.00;;;;;;5095402;28;20220;-67
2022/11/03 11:30:21;;;;;;;;;;;20.30;68.30;;;;;;5096513;28;20053;-65
2022/11/03 11:32:55;;;;;;;;;;;20.30;68.40;;;;;;5113612;28;20010;-66
2022/11/03 11:35:26;;;;;;;;;;;20.30;68.30;;;;;;5114048;28;20264;-66
2022/11/03 11:37:52;;;;;;;;;;;20.30;68.30;;;;;;5113535;28;19924;-66
2022/11/03 11:40:23;;;;;;;;;;;20.30;68.30;;;;;;5114207;28;19924;-66
2022/11/03 11:43:09;;;;;;;;;;;20.30;68.30;;;;;;5113367;28;20007;-66
2022/11/03 11:45:53;;;;;;;;;;;20.30;68.30;;;;;;5095286;28;20014;-66
2022/11/03 11:48:19;;;;;;;;;;;20.30;68.30;;;;;;5113495;28;19928;-66
2022/11/03 11:50:44;;;;;;;;;;;20.30;68.20;;;;;;5113124;28;19931;-66
2022/11/03 11:53:10;;;;;;;;;;;20.30;68.30;;;;;;5113428;28;19931;-66
2022/11/03 11:55:40;;;;;;;;;;;20.30;68.30;;;;;;5096233;28;19946;-67
2022/11/03 11:58:20;;;;;;;;;;;20.20;68.20;;;;;;5113524;28;19923;-66
2022/11/03 12:00:49;;;;;;;;;;;20.30;68.20;;;;;;5094785;28;20375;-66
2022/11/03 12:03:15;;;;;;;;;;;20.20;68.20;;;;;;5113421;28;19924;-66
2022/11/03 12:05:41;;;;;;;;;;;20.20;68.20;;;;;;5095516;28;19931;-66
2022/11/03 12:08:19;;;;;;;;;;;20.20;68.20;;;;;;5078159;28;19919;-66
2022/11/03 12:10:52;;;;;;;;;;;20.20;68.20;;;;;;5129254;27;20290;-66
2022/11/03 12:13:38;;;;;;;;;;;20.20;68.20;;;;;;5113311;28;19971;-66
2022/11/03 12:16:03;;;;;;;;;;;20.20;68.30;;;;;;5112622;28;19928;-66
2022/11/03 12:18:32;;;;;;;;;;;20.20;68.20;;;;;;5113653;28;20386;-66
2022/11/03 12:20:58;;;;;;;;;;;20.20;68.30;;;;;;5094306;28;20401;-65
2022/11/03 12:23:34;;;;;;;;;;;20.20;68.30;;;;;;5113651;28;19985;-65
2022/11/03 12:26:00;;;;;;;;;;;20.20;68.20;;;;;;5113131;28;19931;-65
2022/11/03 12:28:44;;;;;;;;;;;20.20;68.20;;;;;;5112975;28;19924;-66
2022/11/03 12:31:10;;;;;;;;;;;20.10;68.20;;;;;;5113273;28;19953;-66
2022/11/03 12:33:36;;;;;;;;;;;20.20;68.20;;;;;;5129478;27;20019;-65
2022/11/03 12:36:01;;;;;;;;;;;20.20;68.20;;;;;;5112498;28;20362;-66
2022/11/03 12:38:27;;;;;;;;;;;20.20;68.20;;;;;;5112980;28;20000;-65
2022/11/03 12:40:52;;;;;;;;;;;20.20;68.20;;;;;;5113152;28;20031;-65
2022/11/03 12:43:18;;;;;;;;;;;20.20;68.10;;;;;;5112403;28;19924;-66
2022/11/03 12:45:43;;;;;;;;;;;20.20;68.10;;;;;;5094392;28;19939;-66
2022/11/03 12:48:09;;;;;;;;;;;20.20;68.10;;;;;;5113293;28;19928;-65
2022/11/03 12:50:36;;;;;;;;;;;20.20;68.10;;;;;;5112715;28;19930;-65
2022/11/03 12:53:02;;;;;;;;;;;20.20;68.10;;;;;;5094643;28;19923;-65
2022/11/03 12:55:28;;;;;;;;;;;20.20;68.10;;;;;;5112785;28;19927;-66
2022/11/03 12:57:53;;;;;;;;;;;20.20;68.10;;;;;;5112846;28;20040;-66
2022/11/03 13:00:18;;;;;;;;;;;20.20;68.00;;;;;;5115331;28;20019;-65
2022/11/03 13:02:44;;;;;;;;;;;20.20;68.00;;;;;;5116410;28;19924;-66
2022/11/03 13:05:14;;;;;;;;;;;20.30;68.00;;;;;;5099080;28;19992;-66
2022/11/03 13:07:42;;;;;;;;;;;20.30;68.00;;;;;;5132737;27;19930;-66
2022/11/03 13:10:08;;;;;;;;;;;20.30;68.00;;;;;;5116624;28;20423;-66
2022/11/03 13:12:35;;;;;;;;;;;20.30;67.90;;;;;;5132774;27;19970;-66
2022/11/03 13:15:01;;;;;;;;;;;20.30;67.80;;;;;;5098389;28;19963;-66
2022/11/03 13:17:27;;;;;;;;;;;20.30;67.80;;;;;;5116718;28;19965;-65
2022/11/03 13:19:52;;;;;;;;;;;20.30;67.80;;;;;;5098587;28;20354;-66
2022/11/03 13:22:18;;;;;;;;;;;20.30;67.80;;;;;;5116812;28;19927;-66
2022/11/03 13:24:44;;;;;;;;;;;20.30;67.80;;;;;;5116124;28;20278;-65
2022/11/03 13:27:09;;;;;;;;;;;20.40;67.90;;;;;;5098189;28;20267;-66
2022/11/03 13:29:35;;;;;;;;;;;20.40;67.90;;;;;;5098810;28;19924;-66
2022/11/03 13:32:02;;;;;;;;;;;20.40;67.80;;;;;;5116239;28;20011;-65
2022/11/03 13:34:28;;;;;;;;;;;20.40;67.80;;;;;;5116786;28;19931;-66
2022/11/03 13:36:54;;;;;;;;;;;20.40;67.70;;;;;;5116459;28;19932;-66
2022/11/03 13:39:20;;;;;;;;;;;20.40;67.70;;;;;;5116385;28;19935;-66
2022/11/03 13:41:45;;;;;;;;;;;20.40;67.70;;;;;;5115544;28;19946;-66
2022/11/03 13:44:14;;;;;;;;;;;20.40;67.70;;;;;;5128809;27;20286;-66
2022/11/03 13:46:39;;;;;;;;;;;20.40;67.70;;;;;;5095676;28;19947;-66
2022/11/03 13:49:05;;;;;;;;;;;20.40;67.70;;;;;;5095461;28;20312;-66
2022/11/03 13:51:33;;;;;;;;;;;20.40;67.70;;;;;;5095643;28;19928;-66
2022/11/03 13:53:59;;;;;;;;;;;20.40;67.60;;;;;;5094832;28;19930;-66
2022/11/03 13:56:24;;;;;;;;;;;20.40;67.60;;;;;;5095849;28;20030;-66
2022/11/03 13:58:50;;;;;;;;;;;20.40;67.50;;;;;;5094847;28;19926;-66
2022/11/03 14:01:15;;;;;;;;;;;20.40;67.50;;;;;;5096025;28;20363;-66
2022/11/03 14:03:44;;;;;;;;;;;20.40;67.50;;;;;;5095692;28;20312;-65
2022/11/03 14:06:09;;;;;;;;;;;20.40;67.50;;;;;;5094239;28;19924;-66
2022/11/03 14:08:35;;;;;;;;;;;20.40;67.50;;;;;;5095930;28;20007;-66
2022/11/03 14:12:29;;;;;;;;;;;20.40;67.50;;;;;;5094474;28;19931;-66
2022/11/03 14:13:49;;;;;;;;;;;20.40;67.50;;;;;;5094667;28;19924;-66
2022/11/03 14:16:14;;;;;;;;;;;20.40;67.50;;;;;;5094072;28;19924;-66
2022/11/03 14:18:40;;;;;;;;;;;20.40;67.50;;;;;;5095174;28;19924;-66
2022/11/03 14:21:05;;;;;;;;;;;20.40;67.50;;;;;;5094580;28;19924;-66
2022/11/03 14:23:31;;;;;;;;;;;20.40;67.50;;;;;;5095403;28;19924;-66
2022/11/03 14:25:56;;;;;;;;;;;20.40;67.50;;;;;;5094965;28;19954;-66
2022/11/03 14:28:22;;;;;;;;;;;20.40;67.50;;;;;;5094712;28;19924;-66
2022/11/03 14:30:50;;;;;;;;;;;20.40;67.50;;;;;;5094700;28;19924;-66
2022/11/03 14:33:16;;;;;;;;;;;20.40;67.50;;;;;;5095049;28;19924;-66
2022/11/03 14:35:41;;;;;;;;;;;20.40;67.50;;;;;;5094386;28;20039;-66